• Join FlightAware (Why Join?)
  • Login
  • US Flag 
08:46PM EST


 

Airport Tracker/Info


-or-


 

Live Flight TrackerFlight Track Log ✈ N449ND ✈ 07-Mar-2014 ✈ KFPR - KFPR

Flight Track Log - Related Links

Times and Time Zones

All times are in EST time to prevent confusion due to time zone crossing. See the N449ND flight status page for this flight to view local times or setup timezone preferences in your user account.

Time Position Orientation Groundspeed Altitude Reporting Facility
EST Latitude Longitude Course Direction KTS MPH feet Rate Location/Type
11:32AM 27.4311 -80.3667 156° South 92 106 2,100  Level Miami Center
11:33AM 27.4064 -80.3542 156° South 97 112 2,500 420 Climbing Miami Center
11:34AM 27.4050 -80.3214 93° East 91 105 3,000 300 Climbing Miami Center
11:35AM 27.4103 -80.2842 81° East 110 127 3,100  Climbing Miami Center
11:36AM 27.4311 -80.2800 10° North 76 87 3,100 -60 Level Miami Center
11:37AM 27.4497 -80.2947 325° Northwest 62 71 3,000  Descending Miami Center
11:38AM 27.4725 -80.3000 348° North 83 96 3,100  Climbing Miami Center
11:39AM 27.4939 -80.2750 46° Northeast 88 101 3,100  Level Miami Center
11:40AM 27.5194 -80.2522 38° Northeast 113 130 3,100 -60 Level Miami Center
11:41AM 27.5406 -80.2411 25° Northeast 113 130 3,000 -300 Descending Miami Center
11:42AM 27.5742 -80.2422 358° North 88 101 2,500 -600 Descending Miami Center
11:43AM 27.5925 -80.2592 321° Northwest 88 101 1,900 -360 Descending Miami Center
11:44AM 27.6003 -80.2781 295° West 83 96 1,800  Descending Miami Center
11:45AM 27.6122 -80.3019 299° West 78 90 1,900 -60 Climbing Miami Center
11:46AM 27.6200 -80.3231 293° West 78 90 1,700 -480 Descending Miami Center
11:47AM 27.6281 -80.3444 293° West 73 84 1,000 -600 Descending Miami Center
11:48AM 27.6339 -80.3611 292° West 73 84 600 -240 Descending Miami Center
11:49AM 27.6417 -80.3872 289° West 73 84 600 -60 Level Miami Center
11:50AM 27.6494 -80.4108 290° West 79 91 500 240 Descending Miami Center
11:51AM 27.6722 -80.4117 358° North 65 75 1,100 540 Climbing Miami Center
11:52AM 27.6997 -80.3936 30° Northeast 88 101 1,700 540 Climbing Miami Center
11:53AM 27.7172 -80.3708 49° Northeast 91 105 2,300 180 Climbing Miami Center
11:54AM 27.7053 -80.3375 112° Southeast 93 107 2,100 -120 Descending Miami Center
11:55AM 27.6981 -80.2997 102° East 112 129 2,100  Level Miami Center
11:56AM 27.6883 -80.2667 108° East 118 136 2,100  Level Miami Center
11:57AM 27.6722 -80.2403 125° Southeast 110 127 2,100  Level Miami Center
11:58AM 27.6392 -80.2278 161° South 101 116 2,100  Level Miami Center
11:59AM 27.6142 -80.2269 178° South 106 122 2,100 -60 Level Miami Center
12:01PM 27.6089 -80.2736 263° West 87 100 2,000 -120 Descending Miami Center
12:02PM 27.6122 -80.2994 278° West 87 100 1,900 -180 Descending Miami Center
12:03PM 27.6200 -80.3256 289° West 87 100 1,700 -360 Descending Miami Center
12:04PM 27.6278 -80.3469 292° West 87 100 1,200 -600 Descending Miami Center
12:05PM 27.6358 -80.3658 296° West 82 94 600 -360 Descending Miami Center
12:06PM 27.6417 -80.3872 287° West 77 89 500 240 Descending Miami Center
12:14PM 27.4664 -80.2928 222° Southwest 122 140 3,100 240 Climbing Miami Center
12:15PM 27.4975 -80.3726 222° Southwest  Level Estimated
12:15PM 27.4375 -80.2733 149° Southeast 109 125 3,100  Level Miami Center
12:16PM 27.4975 -80.3726 222° Southwest  Level Estimated
12:16PM 27.4172 -80.2469 131° Southeast 109 125 2,900  Level Miami Center
12:17PM 27.4975 -80.3726 222° Southwest  Level Estimated
12:17PM 27.4161 -80.2072 92° East 104 120 2,500  Level Miami Center
12:18PM 27.4975 -80.3726 222° Southwest  Level Estimated
12:18PM 27.4106 -80.1742 101° East 117 135 2,100  Level Miami Center
12:19PM 27.4975 -80.3726 222° Southwest  Level Estimated
12:19PM 27.4031 -80.1389 103° East 123 142 2,100  Level Miami Center
12:20PM 27.3956 -80.0989 102° East 123 142 2,100  Level Miami Center
12:21PM 27.3828 -80.1125 223° Southwest 60 69 2,100  Level Miami Center
12:22PM 27.3719 -80.1311 237° Southwest 47 54 2,100  Level Miami Center
12:23PM 27.3631 -80.1542 247° West 84 97 2,100  Level Miami Center
12:24PM 27.3542 -80.1797 249° West 89 102 2,100 60 Level Miami Center
12:25PM 27.3453 -80.2028 247° West 94 108 2,300  Climbing Miami Center
12:26PM 27.3614 -80.2242 310° West 84 97 2,100 -120 Descending Miami Center
12:27PM 27.3758 -80.2411 314° West 84 97 2,100  Level Miami Center
12:28PM 27.3942 -80.2581 321° Northwest 84 97 2,200 60 Climbing Miami Center
12:29PM 27.4125 -80.2794 314° West 90 104 2,300 -240 Climbing Miami Center
12:30PM 27.4244 -80.2964 308° West 90 104 1,800 -600 Descending Miami Center
12:31PM 27.4389 -80.3108 318° Northwest 84 97 1,100 -600 Descending Miami Center
12:32PM 27.4511 -80.3228 319° Northwest 71 82 700 -180 Descending Miami Center
12:33PM 27.4694 -80.3350 329° Northwest 71 82 800  Climbing Miami Center
12:34PM 27.4881 -80.3472 330° Northwest 71 82 700 -120 Descending Miami Center
12:36PM 27.4975 -80.3726 321° Northwest  Level Estimated